Time;durP1;ratioP1;P1;durP2;ratioP2;P2;SDS_P1;SDS_P2;PMS_P1;PMS_P2;Temp;Humidity;BMP_temperature;BMP_pressure;BME280_temperature;BME280_humidity;BME280_pressure;Samples;Min_cycle;Max_cycle;Signal;HPM_P1;HPM_P2
2022/10/08 00:00:59;;;;;;;13.83;4.30;;;12.50;99.90;;;;;;6282692;22;20391;-83
2022/10/08 00:03:48;;;;;;;;;;;;;;;;;;;;;
2022/10/08 00:06:57;;;;;;;8.87;3.27;;;12.50;99.90;;;;;;6280959;22;20418;-83
2022/10/08 00:13:01;;;;;;;;;;;;;;;;;;;;;
2022/10/08 00:16:00;;;;;;;;;;;;;;;;;;;;;
2022/10/08 00:25:02;;;;;;;8.97;3.10;;;12.50;1.00;;;;;;6254356;22;20430;-84
2022/10/08 00:28:27;;;;;;;17.33;3.20;;;12.40;1.00;;;;;;6279776;22;20413;-83
2022/10/08 00:38:17;;;;;;;10.57;3.53;;;12.40;1.00;;;;;;6272181;22;20464;-83
2022/10/08 00:40:51;;;;;;;7.70;2.43;;;12.40;1.00;;;;;;6274134;22;20387;-83
2022/10/08 00:43:45;;;;;;;;;;;;;;;;;;;;;
2022/10/08 00:46:34;;;;;;;17.63;3.10;;;12.40;1.00;;;;;;6282090;22;20430;-83
2022/10/08 00:49:11;;;;;;;7.10;2.63;;;12.40;1.00;;;;;;6281659;22;20714;-83
2022/10/08 00:51:40;;;;;;;12.63;3.40;;;12.30;1.00;;;;;;6282503;22;20398;-84
2022/10/08 00:54:11;;;;;;;8.50;3.23;;;12.30;1.00;;;;;;6280188;22;20884;-84
2022/10/08 00:56:43;;;;;;;14.70;3.67;;;12.30;48.00;;;;;;6279941;22;20410;-84
2022/10/08 00:59:13;;;;;;;8.33;3.40;;;12.30;71.30;;;;;;6281110;22;20399;-83
2022/10/08 01:02:11;;;;;;;;;;;;;;;;;;;;;
2022/10/08 01:05:04;;;;;;;15.37;3.10;;;12.30;99.90;;;;;;6282754;22;20971;-83
2022/10/08 01:08:10;;;;;;;6.13;2.47;;;12.30;99.90;;;;;;6280706;22;20490;-84
2022/10/08 01:11:01;;;;;;;;;;;;;;;;;;;;;
2022/10/08 01:17:10;;;;;;;11.37;2.97;;;12.30;99.90;;;;;;6233820;22;20474;-83
2022/10/08 01:20:15;;;;;;;10.43;3.20;;;12.30;99.90;;;;;;6264549;22;20503;-84
2022/10/08 01:30:07;;;;;;;;;;;;;;;;;;;;;
2022/10/08 01:32:59;;;;;;;14.10;3.03;;;12.30;1.00;;;;;;6270089;22;20455;-83
2022/10/08 01:35:59;;;;;;;;;;;;;;;;;;;;;
2022/10/08 01:38:43;;;;;;;;;;;;;;;;;;;;;
2022/10/08 01:44:33;;;;;;;10.90;2.67;;;12.30;1.00;;;;;;6266596;22;20418;-83
2022/10/08 01:47:04;;;;;;;12.63;3.20;;;12.30;1.00;;;;;;6276651;22;20904;-83
2022/10/08 01:49:35;;;;;;;10.70;2.77;;;12.30;1.00;;;;;;6277485;22;20355;-83
2022/10/08 01:52:12;;;;;;;11.67;3.03;;;12.30;1.00;;;;;;6277944;22;20355;-83
2022/10/08 01:54:43;;;;;;;11.30;3.60;;;12.30;1.00;;;;;;6277780;22;20355;-83
2022/10/08 01:57:10;;;;;;;6.93;2.90;;;12.30;1.00;;;;;;6276826;22;20489;-83
2022/10/08 01:59:49;;;;;;;8.70;2.60;;;12.30;1.00;;;;;;6275997;22;20409;-83
2022/10/08 02:02:29;;;;;;;7.70;2.90;;;12.30;1.00;;;;;;6277941;22;20699;-83
2022/10/08 02:04:57;;;;;;;11.40;3.30;;;12.30;1.00;;;;;;6275175;22;20423;-83
2022/10/08 02:07:30;;;;;;;12.90;2.63;;;12.30;1.00;;;;;;6277035;22;20736;-83
2022/10/08 02:10:06;;;;;;;7.17;2.67;;;12.30;20.00;;;;;;6279851;22;20437;-84
2022/10/08 02:12:31;;;;;;;15.13;3.60;;;12.30;99.90;;;;;;6280868;22;20355;-84
2022/10/08 02:15:02;;;;;;;15.03;3.57;;;12.30;81.30;;;;;;6279916;22;20466;-83
2022/10/08 02:17:56;;;;;;;9.50;2.57;;;12.30;99.90;;;;;;6253602;22;20403;-84
2022/10/08 02:20:39;;;;;;;9.83;3.17;;;12.30;99.90;;;;;;6279336;22;20839;-83
2022/10/08 02:23:05;;;;;;;11.60;3.50;;;12.30;99.90;;;;;;6254390;22;20387;-84
2022/10/08 02:25:49;;;;;;;6.90;2.37;;;12.30;99.90;;;;;;6250258;22;20386;-83
2022/10/08 02:28:32;;;;;;;8.70;2.37;;;12.40;99.90;;;;;;6278114;22;20164;-83
2022/10/08 02:31:19;;;;;;;5.40;2.90;;;12.40;1.00;;;;;;6277062;22;20348;-83
2022/10/08 02:33:53;;;;;;;9.80;2.97;;;12.40;1.00;;;;;;6278000;22;20366;-83
2022/10/08 02:36:28;;;;;;;6.63;3.40;;;12.50;14.60;;;;;;6276978;22;20460;-83
2022/10/08 02:38:58;;;;;;;12.20;2.70;;;12.60;1.00;;;;;;6276370;22;20393;-83
2022/10/08 02:41:34;;;;;;;5.13;2.33;;;12.60;1.00;;;;;;6281249;22;20849;-84
2022/10/08 02:44:05;;;;;;;12.27;2.80;;;12.70;1.00;;;;;;6281056;22;20724;-83
2022/10/08 02:46:36;;;;;;;11.30;2.60;;;12.70;1.00;;;;;;6280411;22;20462;-83
2022/10/08 02:49:06;;;;;;;6.50;3.00;;;12.70;1.00;;;;;;6280226;22;20401;-83
2022/10/08 02:51:36;;;;;;;5.20;2.67;;;12.80;2.10;;;;;;6280126;22;20379;-83
2022/10/08 02:54:08;;;;;;;12.23;4.07;;;12.80;1.00;;;;;;6254288;22;20411;-83
2022/10/08 02:56:50;;;;;;;14.93;2.87;;;12.90;1.00;;;;;;6277767;22;20751;-84
2022/10/08 02:59:18;;;;;;;7.90;2.40;;;12.90;7.00;;;;;;6281940;22;20903;-84
2022/10/08 03:01:47;;;;;;;18.50;4.00;;;12.90;1.00;;;;;;6288260;22;20437;-83
2022/10/08 03:04:20;;;;;;;8.90;2.70;;;13.00;1.00;;;;;;6292971;22;20434;-83
2022/10/08 03:06:47;;;;;;;7.40;3.10;;;13.00;55.30;;;;;;6277340;22;20474;-83
2022/10/08 03:09:16;;;;;;;8.00;3.53;;;13.00;81.50;;;;;;6275217;22;20407;-83
2022/10/08 03:11:43;;;;;;;9.10;3.67;;;13.10;99.90;;;;;;6274729;22;20887;-83
2022/10/08 03:14:12;;;;;;;8.60;2.60;;;13.10;99.90;;;;;;6276490;22;20386;-83
2022/10/08 03:16:42;;;;;;;6.43;2.70;;;13.10;99.90;;;;;;6278050;22;20452;-83
2022/10/08 03:19:10;;;;;;;6.60;3.20;;;13.20;1.00;;;;;;6278235;22;20371;-83
2022/10/08 03:21:38;;;;;;;7.13;3.00;;;13.20;1.00;;;;;;6280830;22;20432;-83
2022/10/08 03:24:05;;;;;;;8.83;3.87;;;13.20;57.40;;;;;;6279960;22;20924;-83
2022/10/08 03:26:32;;;;;;;9.20;2.20;;;13.20;99.90;;;;;;6278165;22;20525;-83
2022/10/08 03:29:00;;;;;;;13.63;2.60;;;13.30;99.90;;;;;;6280487;22;20385;-83
2022/10/08 03:31:31;;;;;;;12.63;2.83;;;13.30;99.90;;;;;;6280299;22;20397;-83
2022/10/08 03:33:56;;;;;;;11.10;3.30;;;13.30;1.00;;;;;;6278797;22;20694;-83
2022/10/08 03:36:25;;;;;;;7.23;2.43;;;13.30;34.70;;;;;;6279029;22;20418;-83
2022/10/08 03:38:51;;;;;;;12.63;3.00;;;13.40;99.90;;;;;;6280646;22;20155;-83
2022/10/08 03:41:17;;;;;;;11.17;3.27;;;13.40;99.90;;;;;;6279709;22;20470;-83
2022/10/08 03:43:43;;;;;;;6.60;2.90;;;13.30;99.90;;;;;;6280783;22;20429;-83
2022/10/08 03:46:11;;;;;;;12.07;3.17;;;13.30;99.90;;;;;;6279613;22;20378;-83
2022/10/08 03:48:37;;;;;;;14.67;3.07;;;13.30;1.00;;;;;;6280774;22;20852;-83
2022/10/08 03:51:09;;;;;;;9.53;3.60;;;13.20;1.00;;;;;;6278758;22;20397;-83
2022/10/08 03:53:37;;;;;;;12.93;4.30;;;13.20;99.90;;;;;;6253912;22;20391;-83
2022/10/08 03:56:05;;;;;;;11.30;3.57;;;13.10;99.90;;;;;;6279154;22;20379;-83
2022/10/08 03:58:31;;;;;;;17.47;4.37;;;13.10;99.90;;;;;;6280718;22;20430;-83
2022/10/08 04:01:05;;;;;;;17.03;5.03;;;13.10;99.90;;;;;;6279951;22;20697;-83
2022/10/08 04:03:31;;;;;;;13.17;7.40;;;13.00;99.90;;;;;;6281555;22;20174;-83
2022/10/08 04:05:57;;;;;;;20.03;8.43;;;13.00;1.00;;;;;;6278674;22;20387;-84
2022/10/08 04:08:24;;;;;;;12.50;7.40;;;13.00;1.00;;;;;;6255308;22;20383;-85
2022/10/08 04:10:49;;;;;;;17.00;8.03;;;13.00;1.00;;;;;;6282706;22;20379;-84
2022/10/08 04:13:15;;;;;;;21.37;7.70;;;13.00;1.00;;;;;;6280930;22;20379;-84
2022/10/08 04:15:42;;;;;;;21.17;6.90;;;12.90;1.00;;;;;;6283105;22;20245;-84
2022/10/08 04:18:11;;;;;;;13.63;6.13;;;12.90;1.00;;;;;;6283392;22;20810;-84
2022/10/08 04:20:38;;;;;;;11.90;4.90;;;12.90;1.00;;;;;;6282472;22;20387;-83
2022/10/08 04:23:04;;;;;;;12.60;4.50;;;12.90;1.00;;;;;;6280640;22;20375;-83
2022/10/08 04:25:29;;;;;;;13.30;4.60;;;12.90;1.00;;;;;;6281333;22;20367;-83
2022/10/08 04:27:55;;;;;;;11.97;4.70;;;12.90;1.00;;;;;;6279721;22;20398;-83
2022/10/08 04:30:22;;;;;;;18.07;5.13;;;13.00;1.00;;;;;;6281482;22;20148;-83
2022/10/08 04:32:48;;;;;;;5.90;4.40;;;12.90;1.00;;;;;;6282395;22;20202;-84
2022/10/08 04:35:13;;;;;;;7.90;4.80;;;12.90;1.00;;;;;;6280987;22;20371;-83
2022/10/08 04:37:39;;;;;;;12.97;5.13;;;12.90;1.00;;;;;;6281240;22;20202;-83
2022/10/08 04:40:08;;;;;;;9.77;5.83;;;12.90;1.00;;;;;;6281858;22;20154;-83
2022/10/08 04:42:33;;;;;;;13.17;5.67;;;12.90;1.00;;;;;;6282822;22;20179;-84
2022/10/08 04:44:59;;;;;;;15.03;5.43;;;12.90;1.00;;;;;;6280573;22;20375;-83
2022/10/08 04:47:24;;;;;;;17.40;5.93;;;12.90;1.00;;;;;;6282682;22;20191;-84
2022/10/08 04:49:50;;;;;;;13.77;6.10;;;12.90;1.00;;;;;;6255744;22;20550;-83
2022/10/08 04:52:17;;;;;;;15.50;7.20;;;12.90;1.00;;;;;;6283269;22;20184;-84
2022/10/08 04:54:43;;;;;;;12.43;6.30;;;12.90;1.00;;;;;;6254892;22;20685;-84
2022/10/08 04:57:11;;;;;;;12.40;5.83;;;12.90;1.00;;;;;;6283958;22;20397;-84
2022/10/08 04:59:36;;;;;;;9.57;6.33;;;12.90;1.00;;;;;;6297084;22;20194;-83
2022/10/08 05:02:02;;;;;;;11.23;6.87;;;12.90;1.00;;;;;;6271592;22;20383;-83
2022/10/08 05:04:30;;;;;;;14.70;6.67;;;12.90;1.00;;;;;;6279774;22;20159;-83
2022/10/08 05:06:58;;;;;;;11.03;5.70;;;12.90;1.00;;;;;;6277753;22;20223;-83
2022/10/08 05:09:23;;;;;;;14.20;5.50;;;12.90;1.00;;;;;;6277462;22;20382;-83
2022/10/08 05:21:43;;;;;;;;;;;;;;;;;;;;;
2022/10/08 05:37:47;;;;;;;;;;;;;;;;;;;;;
2022/10/08 05:44:25;;;;;;;;;;;;;;;;;;;;;
2022/10/08 05:47:24;;;;;;;;;;;;;;;;;;;;;
2022/10/08 05:50:12;;;;;;;;;;;;;;;;;;;;;
2022/10/08 05:53:37;;;;;;;;;;;;;;;;;;;;;
2022/10/08 06:00:01;;;;;;;;;;;;;;;;;;;;;
2022/10/08 06:06:34;;;;;;;13.67;9.43;;;13.10;1.00;;;;;;6158433;23;20876;-81
2022/10/08 06:16:32;;;;;;;;;;;;;;;;;;;;;
2022/10/08 06:19:40;;;;;;;;;;;;;;;;;;;;;
2022/10/08 06:29:28;;;;;;;;;;;;;;;;;;;;;
2022/10/08 06:32:46;;;;;;;;;;;;;;;;;;;;;
2022/10/08 06:35:58;;;;;;;;;;;;;;;;;;;;;
2022/10/08 06:38:57;;;;;;;;;;;;;;;;;;;;;
2022/10/08 06:45:32;;;;;;;;;;;;;;;;;;;;;
2022/10/08 06:51:42;;;;;;;21.13;11.03;;;13.70;1.00;;;;;;6209815;23;20730;-81
2022/10/08 06:54:54;;;;;;;;;;;;;;;;;;;;;
2022/10/08 07:01:50;;;;;;;22.80;12.27;;;13.60;1.00;;;;;;6170294;23;20414;-83
2022/10/08 07:04:39;;;;;;;24.50;12.43;;;13.70;1.00;;;;;;6145319;23;20391;-80
2022/10/08 07:08:12;;;;;;;;;;;;;;;;;;;;;
2022/10/08 07:11:37;;;;;;;;;;;;;;;;;;;;;
2022/10/08 07:24:40;;;;;;;;;;;;;;;;;;;;;
2022/10/08 07:27:51;;;;;;;;;;;;;;;;;;;;;
2022/10/08 07:30:26;;;;;;;19.47;11.37;;;15.30;99.90;;;;;;6250956;23;20383;-82
2022/10/08 07:33:12;;;;;;;;;;;;;;;;;;;;;
2022/10/08 07:42:47;;;;;;;;;;;;;;;;;;;;;
2022/10/08 07:46:02;;;;;;;;;;;;;;;;;;;;;
2022/10/08 07:52:19;;;;;;;19.00;10.47;;;19.10;1.00;;;;;;6177959;23;20403;-82
2022/10/08 07:55:33;;;;;;;16.43;10.23;;;18.20;99.90;;;;;;6250905;23;20423;-83
2022/10/08 07:58:49;;;;;;;;;;;;;;;;;;;;;
2022/10/08 08:05:07;;;;;;;17.93;10.30;;;19.20;99.90;;;;;;6222292;23;20468;-83
2022/10/08 08:08:08;;;;;;;;;;;;;;;;;;;;;
2022/10/08 08:11:26;;;;;;;;;;;;;;;;;;;;;
2022/10/08 08:29:05;;;;;;;;;;;;;;;;;;;;;
2022/10/08 08:46:31;;;;;;;;;;;;;;;;;;;;;
2022/10/08 09:00:08;;;;;;;;;;;;;;;;;;;;;
2022/10/08 09:17:44;;;;;;;;;;;;;;;;;;;;;
2022/10/08 09:24:46;;;;;;;8.93;3.77;;;27.00;91.50;;;;;;6148372;23;20443;-83
2022/10/08 09:31:35;;;;;;;;;;;;;;;;;;;;;
2022/10/08 09:37:50;;;;;;;;;;;;;;;;;;;;;
2022/10/08 09:43:47;;;;;;;6.97;3.97;;;20.50;94.80;;;;;;6228302;23;20458;-82
2022/10/08 09:47:10;;;;;;;12.10;4.50;;;20.80;99.90;;;;;;6221205;23;20390;-82
2022/10/08 09:52:50;;;;;;;7.40;3.33;;;21.80;99.90;;;;;;6249205;23;20424;-82
2022/10/08 09:55:56;;;;;;;;;;;;;;;;;;;;;
2022/10/08 10:01:56;;;;;;;;;;;;;;;;;;;;;
2022/10/08 10:05:20;;;;;;;9.30;3.30;;;19.80;99.90;;;;;;6251809;23;20953;-83
2022/10/08 10:07:55;;;;;;;12.23;3.27;;;19.40;99.90;;;;;;6252910;23;20765;-83
2022/10/08 10:10:55;;;;;;;14.67;4.47;;;20.20;99.90;;;;;;6253862;23;20355;-83
2022/10/08 10:13:56;;;;;;;;;;;;;;;;;;;;;
2022/10/08 10:17:00;;;;;;;;;;;;;;;;;;;;;
2022/10/08 10:19:58;;;;;;;10.13;3.07;;;20.90;99.90;;;;;;6252106;23;20394;-83
2022/10/08 10:22:39;;;;;;;5.20;2.70;;;20.70;99.90;;;;;;6253474;23;20419;-82
2022/10/08 10:25:42;;;;;;;7.83;2.87;;;20.30;99.90;;;;;;6251281;23;20434;-83
2022/10/08 10:29:11;;;;;;;11.80;4.20;;;19.90;99.90;;;;;;6165057;23;20437;-83
2022/10/08 10:31:44;;;;;;;7.33;3.57;;;19.70;99.90;;;;;;6198537;23;21352;-82
2022/10/08 10:34:33;;;;;;;;;;;;;;;;;;;;;
2022/10/08 10:37:14;;;;;;;13.30;4.90;;;19.10;99.90;;;;;;6251932;23;20405;-83
2022/10/08 10:40:18;;;;;;;12.87;4.03;;;19.20;99.90;;;;;;6224653;23;20849;-83
2022/10/08 10:47:07;;;;;;;12.83;2.20;;;24.00;99.90;;;;;;6252481;23;20375;-84
2022/10/08 10:50:10;;;;;;;6.63;2.20;;;26.60;99.90;;;;;;6253120;23;20359;-83
2022/10/08 10:59:37;;;;;;;4.33;1.80;;;27.30;99.90;;;;;;6254748;23;20432;-83
2022/10/08 11:02:21;;;;;;;9.40;2.87;;;25.20;99.90;;;;;;6251617;23;20405;-82
2022/10/08 11:04:50;;;;;;;9.67;2.40;;;23.30;99.90;;;;;;6225389;23;20743;-82
2022/10/08 11:07:41;;;;;;;6.43;2.10;;;22.00;99.90;;;;;;6250855;23;20537;-83
2022/10/08 11:10:20;;;;;;;6.70;2.10;;;22.40;99.90;;;;;;6226322;23;20427;-82
2022/10/08 11:13:24;;;;;;;;;;;;;;;;;;;;;
2022/10/08 11:16:22;;;;;;;6.43;1.90;;;22.00;99.90;;;;;;6252434;23;20384;-84
2022/10/08 11:19:06;;;;;;;4.57;1.83;;;23.90;99.90;;;;;;6222330;23;20471;-82
2022/10/08 11:26:07;;;;;;;;;;;;;;;;;;;;;
2022/10/08 11:32:29;;;;;;;;;;;;;;;;;;;;;
2022/10/08 11:35:48;;;;;;;;;;;;;;;;;;;;;
2022/10/08 11:46:29;;;;;;;;;;;;;;;;;;;;;
2022/10/08 11:56:27;;;;;;;;;;;;;;;;;;;;;
2022/10/08 12:03:08;;;;;;;;;;;;;;;;;;;;;
2022/10/08 12:13:21;;;;;;;;;;;;;;;;;;;;;
2022/10/08 12:16:37;;;;;;;;;;;;;;;;;;;;;
2022/10/08 12:22:54;;;;;;;;;;;;;;;;;;;;;
2022/10/08 12:49:39;;;;;;;;;;;;;;;;;;;;;
2022/10/08 12:52:40;;;;;;;2.33;1.20;;;23.40;85.90;;;;;;6254057;23;20431;-83
2022/10/08 13:28:42;;;;;;;11.37;8.60;;;25.40;87.10;;;;;;6252982;22;20414;-85
2022/10/08 13:31:34;;;;;;;5.40;4.10;;;25.40;85.30;;;;;;6273439;22;20383;-85
2022/10/08 13:37:40;;;;;;;4.37;1.47;;;25.60;84.70;;;;;;6253144;22;20393;-85
2022/10/08 13:40:11;;;;;;;5.07;1.30;;;25.50;84.90;;;;;;6276457;22;21143;-85
2022/10/08 13:43:05;;;;;;;5.00;1.10;;;25.40;83.00;;;;;;6276434;22;20375;-86
2022/10/08 13:45:35;;;;;;;4.50;1.17;;;25.60;82.50;;;;;;6250067;22;20415;-86
2022/10/08 13:48:04;;;;;;;3.47;0.83;;;25.60;82.30;;;;;;6276665;22;20700;-83
2022/10/08 13:50:30;;;;;;;4.40;1.40;;;25.60;80.20;;;;;;6250669;22;20762;-84
2022/10/08 13:53:01;;;;;;;6.77;1.27;;;25.50;80.60;;;;;;6275976;22;20470;-84
2022/10/08 13:55:30;;;;;;;4.77;1.30;;;25.30;78.20;;;;;;6275991;22;20405;-84
2022/10/08 13:57:58;;;;;;;5.73;1.37;;;25.10;75.30;;;;;;6276389;22;20374;-83
2022/10/08 14:00:25;;;;;;;4.50;1.70;;;24.90;91.10;;;;;;6276069;22;20429;-83
2022/10/08 14:02:52;;;;;;;4.10;1.40;;;24.90;75.10;;;;;;6275584;22;20418;-83
2022/10/08 14:05:19;;;;;;;2.60;1.40;;;24.90;73.90;;;;;;6276919;22;21003;-83
2022/10/08 14:07:46;;;;;;;2.40;1.53;;;24.80;74.20;;;;;;6249034;22;20387;-84
2022/10/08 14:10:12;;;;;;;6.30;1.20;;;24.80;73.40;;;;;;6276164;22;20730;-83
2022/10/08 14:12:38;;;;;;;4.40;1.20;;;24.60;71.80;;;;;;6248757;22;20445;-84
2022/10/08 14:15:04;;;;;;;5.17;1.53;;;23.90;66.90;;;;;;6275523;22;20410;-83
2022/10/08 14:17:31;;;;;;;7.23;1.77;;;23.30;63.10;;;;;;6275342;22;20148;-83
2022/10/08 14:19:57;;;;;;;3.80;1.60;;;22.60;60.60;;;;;;6243811;23;20862;-83
2022/10/08 14:22:24;;;;;;;4.60;1.53;;;22.40;59.50;;;;;;6245764;22;20375;-83
2022/10/08 14:24:50;;;;;;;4.63;1.43;;;22.00;58.80;;;;;;6245287;22;20413;-83
2022/10/08 14:27:16;;;;;;;4.43;1.43;;;21.60;57.80;;;;;;6245247;22;20370;-83
2022/10/08 14:29:41;;;;;;;3.23;1.33;;;21.30;57.30;;;;;;6244810;22;21016;-84
2022/10/08 14:32:08;;;;;;;7.87;3.17;;;20.90;57.40;;;;;;6246158;22;20153;-83
2022/10/08 14:34:34;;;;;;;28.43;21.03;;;20.90;58.00;;;;;;6243206;23;20227;-83
2022/10/08 14:37:00;;;;;;;4.90;2.53;;;21.00;59.40;;;;;;6243996;23;20397;-83
2022/10/08 14:39:26;;;;;;;4.13;1.53;;;21.00;59.50;;;;;;6245160;22;20392;-83
2022/10/08 14:41:52;;;;;;;5.50;2.40;;;20.80;60.00;;;;;;6246657;22;20154;-83
2022/10/08 14:44:21;;;;;;;4.77;2.47;;;20.70;60.00;;;;;;6245348;22;20416;-83
2022/10/08 14:46:52;;;;;;;3.20;2.37;;;20.60;59.40;;;;;;6245367;22;20869;-84
2022/10/08 14:49:18;;;;;;;3.97;1.80;;;20.60;60.10;;;;;;6242473;23;20408;-83
2022/10/08 14:51:45;;;;;;;6.73;2.93;;;20.50;61.20;;;;;;6245495;22;20462;-83
2022/10/08 14:54:10;;;;;;;8.70;1.73;;;20.40;60.90;;;;;;6247986;22;20433;-83
2022/10/08 14:56:37;;;;;;;3.30;1.37;;;20.60;61.50;;;;;;6245025;22;20391;-83
2022/10/08 14:59:03;;;;;;;3.33;1.20;;;20.60;62.00;;;;;;6245917;23;20165;-83
2022/10/08 15:01:29;;;;;;;8.50;2.00;;;20.50;63.20;;;;;;6248802;22;20436;-84
2022/10/08 15:03:55;;;;;;;8.47;2.40;;;20.80;65.30;;;;;;6246439;22;20420;-85
2022/10/08 15:06:21;;;;;;;4.13;1.40;;;21.20;68.10;;;;;;6245788;22;20383;-85
2022/10/08 15:08:46;;;;;;;5.10;1.30;;;21.30;68.80;;;;;;6246380;22;20177;-85
2022/10/08 15:11:12;;;;;;;11.20;2.63;;;21.10;68.60;;;;;;6248121;22;20205;-84
2022/10/08 15:13:37;;;;;;;3.53;1.17;;;20.80;66.90;;;;;;6249970;22;20160;-84
2022/10/08 15:16:03;;;;;;;7.03;1.63;;;20.60;66.50;;;;;;6250931;22;20288;-85
2022/10/08 15:18:30;;;;;;;3.23;1.50;;;20.60;67.10;;;;;;6252246;22;20580;-85
2022/10/08 15:20:58;;;;;;;3.60;1.30;;;20.40;66.40;;;;;;6272385;22;20431;-85
2022/10/08 15:23:24;;;;;;;6.17;2.30;;;20.30;66.10;;;;;;6277102;22;20453;-82
2022/10/08 15:26:01;;;;;;;6.07;1.93;;;20.10;64.20;;;;;;6278898;22;20374;-85
2022/10/08 15:28:27;;;;;;;2.80;1.27;;;20.00;64.90;;;;;;6276384;22;20374;-84
2022/10/08 15:31:06;;;;;;;5.30;1.57;;;19.80;64.30;;;;;;6251495;22;20892;-84
2022/10/08 15:33:42;;;;;;;2.97;1.20;;;19.80;65.40;;;;;;6278648;22;20358;-85
2022/10/08 15:36:30;;;;;;;7.93;1.80;;;19.50;64.00;;;;;;6280397;22;20389;-86
2022/10/08 15:39:03;;;;;;;5.73;1.43;;;19.30;64.90;;;;;;6253046;22;20421;-85
2022/10/08 15:41:32;;;;;;;5.00;1.63;;;19.20;65.10;;;;;;6252253;22;20384;-84
2022/10/08 15:44:07;;;;;;;2.47;1.57;;;19.10;64.80;;;;;;6277436;22;20974;-84
2022/10/08 15:46:33;;;;;;;2.63;1.00;;;19.00;64.10;;;;;;6275604;22;20387;-84
2022/10/08 15:49:00;;;;;;;4.80;1.50;;;18.80;64.50;;;;;;6279609;22;20375;-84
2022/10/08 15:51:28;;;;;;;4.50;1.40;;;18.70;64.70;;;;;;6276854;22;20193;-85
2022/10/08 15:53:54;;;;;;;3.77;1.10;;;18.60;66.80;;;;;;6249417;22;20382;-85
2022/10/08 15:56:19;;;;;;;3.97;1.53;;;18.50;66.40;;;;;;6251201;22;20396;-84
2022/10/08 15:58:47;;;;;;;3.93;1.67;;;18.50;65.90;;;;;;6277585;22;20375;-85
2022/10/08 16:01:15;;;;;;;8.50;2.70;;;18.30;66.00;;;;;;6277781;22;20171;-84
2022/10/08 16:03:46;;;;;;;3.03;1.30;;;18.20;66.90;;;;;;6249611;22;20422;-83
2022/10/08 16:06:17;;;;;;;3.63;1.50;;;18.00;67.40;;;;;;6277358;22;20432;-84
2022/10/08 16:08:49;;;;;;;11.90;1.73;;;18.00;70.00;;;;;;6247449;22;20456;-85
2022/10/08 16:11:23;;;;;;;285.37;199.20;;;17.90;71.20;;;;;;6276577;22;20450;-85
2022/10/08 16:13:51;;;;;;;7.20;2.17;;;17.90;73.60;;;;;;6276366;22;20362;-84
2022/10/08 16:16:19;;;;;;;5.97;2.50;;;17.80;74.00;;;;;;6274759;22;20415;-85
2022/10/08 16:18:54;;;;;;;5.50;1.60;;;17.80;75.40;;;;;;6277073;22;20747;-85
2022/10/08 16:21:20;;;;;;;5.20;1.70;;;17.80;76.90;;;;;;6277506;22;20395;-85
2022/10/08 16:23:46;;;;;;;4.03;2.97;;;17.70;78.50;;;;;;6278483;22;20541;-85
2022/10/08 16:26:19;;;;;;;3.60;1.87;;;17.70;80.70;;;;;;6276123;22;20157;-85
2022/10/08 16:28:49;;;;;;;3.20;1.80;;;17.60;82.50;;;;;;6250400;22;20414;-85
2022/10/08 16:31:15;;;;;;;3.40;2.00;;;17.50;84.10;;;;;;6277738;22;20390;-85
2022/10/08 16:33:41;;;;;;;5.53;1.70;;;17.50;86.50;;;;;;6276965;22;20378;-86
2022/10/08 16:36:08;;;;;;;5.90;1.50;;;17.30;88.80;;;;;;6247431;22;20490;-85
2022/10/08 16:38:37;;;;;;;5.10;1.50;;;17.20;89.90;;;;;;6275583;22;20149;-85
2022/10/08 16:41:16;;;;;;;7.70;1.83;;;17.10;90.80;;;;;;6280699;22;20411;-86
2022/10/08 16:43:47;;;;;;;9.37;2.33;;;16.90;92.00;;;;;;6280923;22;20409;-86
2022/10/08 16:46:49;;;;;;;9.20;2.07;;;16.80;93.70;;;;;;6251965;22;20386;-86
2022/10/08 16:49:22;;;;;;;5.13;1.60;;;16.60;95.00;;;;;;6276062;22;20405;-86
2022/10/08 16:51:50;;;;;;;5.83;2.03;;;16.40;97.20;;;;;;6277104;22;20367;-87
2022/10/08 16:54:32;;;;;;;6.53;4.17;;;16.40;99.10;;;;;;6275759;22;20757;-86
2022/10/08 16:56:58;;;;;;;4.50;2.90;;;16.30;99.90;;;;;;6276331;22;20434;-86
2022/10/08 16:59:25;;;;;;;4.20;2.37;;;16.10;99.90;;;;;;6248659;22;20912;-86
2022/10/08 17:01:52;;;;;;;5.37;2.10;;;16.00;99.90;;;;;;6276898;22;20189;-87
2022/10/08 17:04:23;;;;;;;4.93;1.90;;;15.90;99.90;;;;;;6275837;22;20450;-88
2022/10/08 17:06:52;;;;;;;10.40;2.17;;;15.90;99.90;;;;;;6276842;22;20367;-84
2022/10/08 17:09:17;;;;;;;6.27;1.90;;;15.80;99.90;;;;;;6250212;22;20411;-85
2022/10/08 17:11:51;;;;;;;4.90;2.17;;;15.70;99.90;;;;;;6279395;22;20460;-84
2022/10/08 17:14:19;;;;;;;5.60;2.43;;;15.60;99.90;;;;;;6278324;22;20234;-85
2022/10/08 17:16:47;;;;;;;4.97;1.87;;;15.60;99.90;;;;;;6277910;22;20385;-84
2022/10/08 17:19:15;;;;;;;4.70;2.10;;;15.50;99.90;;;;;;6277782;22;20385;-84
2022/10/08 17:21:44;;;;;;;6.33;1.90;;;15.50;99.90;;;;;;6252634;22;20389;-85
2022/10/08 17:24:13;;;;;;;25.83;16.43;;;15.40;99.90;;;;;;6252491;22;20919;-84
2022/10/08 17:26:47;;;;;;;34.87;27.87;;;15.30;99.90;;;;;;6250011;22;20385;-85
2022/10/08 17:29:16;;;;;;;47.03;39.20;;;15.30;99.90;;;;;;6278346;22;20835;-84
2022/10/08 17:31:46;;;;;;;15.83;11.97;;;15.20;99.90;;;;;;6278924;22;20373;-84
2022/10/08 17:34:11;;;;;;;9.80;4.50;;;15.20;99.90;;;;;;6276710;22;20378;-86
2022/10/08 17:36:40;;;;;;;9.53;3.60;;;15.20;99.90;;;;;;6276047;22;20373;-86
2022/10/08 17:39:27;;;;;;;;;;;;;;;;;;;;;
2022/10/08 17:47:57;;;;;;;7.20;3.40;;;15.00;99.90;;;;;;6281160;22;20424;-85
2022/10/08 17:51:02;;;;;;;4.87;3.87;;;14.90;99.90;;;;;;6280666;22;20384;-85
2022/10/08 17:53:40;;;;;;;;;;;;;;;;;;;;;
2022/10/08 17:56:11;;;;;;;8.80;3.70;;;14.80;99.90;;;;;;6282277;22;20381;-85
2022/10/08 17:59:13;;;;;;;8.73;3.30;;;14.80;99.90;;;;;;6280123;22;20456;-85
2022/10/08 18:01:54;;;;;;;7.00;2.83;;;14.70;99.90;;;;;;6252093;22;20398;-86
2022/10/08 18:07:24;;;;;;;6.07;3.93;;;14.60;99.90;;;;;;6258581;22;20394;-85
2022/10/08 18:10:16;;;;;;;7.63;4.80;;;14.60;99.90;;;;;;6253269;22;20399;-85
2022/10/08 18:13:30;;;;;;;6.73;4.00;;;14.60;99.90;;;;;;6279611;22;20408;-85
2022/10/08 18:16:25;;;;;;;;;;;;;;;;;;;;;
2022/10/08 18:19:06;;;;;;;;;;;;;;;;;;;;;
2022/10/08 18:21:59;;;;;;;11.63;4.30;;;14.40;99.90;;;;;;6278006;22;20916;-85
2022/10/08 18:24:45;;;;;;;6.27;2.97;;;14.30;99.90;;;;;;6249466;22;20451;-85
2022/10/08 18:27:20;;;;;;;;;;;;;;;;;;;;;
2022/10/08 18:29:51;;;;;;;6.23;2.63;;;14.20;99.90;;;;;;6277085;22;20459;-85
2022/10/08 18:32:21;;;;;;;11.03;4.23;;;14.20;99.90;;;;;;6250643;22;20460;-85
2022/10/08 18:35:12;;;;;;;5.40;3.50;;;14.20;99.90;;;;;;6251239;22;20450;-85
2022/10/08 18:38:10;;;;;;;;;;;;;;;;;;;;;
2022/10/08 18:47:01;;;;;;;;;;;;;;;;;;;;;
2022/10/08 18:50:02;;;;;;;;;;;;;;;;;;;;;
2022/10/08 18:52:47;;;;;;;43.60;17.53;;;13.90;99.90;;;;;;6276434;22;20457;-86
2022/10/08 18:55:30;;;;;;;13.73;4.20;;;13.80;99.90;;;;;;6248862;22;20363;-86
2022/10/08 18:58:24;;;;;;;9.10;4.13;;;13.80;99.90;;;;;;6248737;22;20440;-87
2022/10/08 19:01:00;;;;;;;6.47;3.77;;;13.80;99.90;;;;;;6275406;22;20383;-86
2022/10/08 19:04:11;;;;;;;7.30;3.70;;;13.80;99.90;;;;;;6247640;22;20371;-85
2022/10/08 19:06:43;;;;;;;14.10;4.00;;;13.70;99.90;;;;;;6254137;22;20395;-86
2022/10/08 19:09:36;;;;;;;7.87;3.60;;;13.60;99.90;;;;;;6273619;22;20437;-88
2022/10/08 19:15:49;;;;;;;12.20;7.27;;;13.50;99.90;;;;;;6259476;22;21024;-88
2022/10/08 19:19:02;;;;;;;;;;;;;;;;;;;;;
2022/10/08 19:22:01;;;;;;;;;;;;;;;;;;;;;
2022/10/08 19:24:51;;;;;;;56.77;34.00;;;13.30;99.90;;;;;;6278970;22;20415;-88
2022/10/08 19:27:47;;;;;;;70.47;48.77;;;13.30;99.90;;;;;;6253254;22;20383;-86
2022/10/08 19:30:33;;;;;;;;;;;;;;;;;;;;;
2022/10/08 19:33:14;;;;;;;;;;;;;;;;;;;;;
2022/10/08 19:36:05;;;;;;;6.07;3.63;;;13.10;99.90;;;;;;6274103;22;20434;-85
2022/10/08 19:38:40;;;;;;;;;;;;;;;;;;;;;
2022/10/08 19:41:30;;;;;;;8.30;3.13;;;13.10;99.90;;;;;;6276386;22;20923;-84
2022/10/08 19:47:11;;;;;;;;;;;;;;;;;;;;;
2022/10/08 19:53:07;;;;;;;6.40;2.70;;;12.90;99.90;;;;;;6253424;22;20437;-87
2022/10/08 19:56:15;;;;;;;9.90;3.30;;;12.80;99.90;;;;;;6235590;22;20385;-86
2022/10/08 20:05:26;;;;;;;10.43;4.50;;;12.70;99.90;;;;;;6278492;22;20426;-86
2022/10/08 20:10:58;;;;;;;;;;;;;;;;;;;;;
2022/10/08 20:14:06;;;;;;;;;;;;;;;;;;;;;
2022/10/08 20:16:48;;;;;;;10.00;4.37;;;12.50;1.00;;;;;;6276688;22;20462;-88
2022/10/08 20:20:07;;;;;;;;;;;;;;;;;;;;;
2022/10/08 20:23:03;;;;;;;;;;;;;;;;;;;;;
2022/10/08 20:29:32;;;;;;;13.80;6.30;;;12.40;1.00;;;;;;6256792;22;20367;-86
2022/10/08 20:32:09;;;;;;;11.17;7.17;;;12.30;1.00;;;;;;6259295;22;20432;-87
2022/10/08 20:35:01;;;;;;;;;;;;;;;;;;;;;
2022/10/08 20:37:27;;;;;;;13.20;6.53;;;12.20;1.00;;;;;;6276413;22;20475;-86
2022/10/08 20:40:52;;;;;;;;;;;;;;;;;;;;;
2022/10/08 20:43:55;;;;;;;;;;;;;;;;;;;;;
2022/10/08 20:49:55;;;;;;;;;;;;;;;;;;;;;
2022/10/08 20:52:34;;;;;;;;;;;;;;;;;;;;;
2022/10/08 20:57:57;;;;;;;10.80;7.03;;;11.90;1.00;;;;;;6259784;22;20467;-85
2022/10/08 21:00:28;;;;;;;10.50;6.87;;;11.90;1.00;;;;;;6250403;22;20397;-85
2022/10/08 21:03:53;;;;;;;;;;;;;;;;;;;;;
2022/10/08 21:13:28;;;;;;;;;;;;;;;;;;;;;
2022/10/08 21:16:31;;;;;;;9.80;6.40;;;11.60;1.00;;;;;;6276455;22;20462;-86
2022/10/08 21:19:58;;;;;;;8.60;4.63;;;11.50;1.00;;;;;;6249078;22;20362;-88
2022/10/08 21:23:02;;;;;;;;;;;;;;;;;;;;;
2022/10/08 21:29:41;;;;;;;19.00;8.87;;;11.50;1.00;;;;;;6212611;22;20722;-87